Time;durP1;ratioP1;P1;durP2;ratioP2;P2;SDS_P1;SDS_P2;PMS_P1;PMS_P2;Temp;Humidity;BMP_temperature;BMP_pressure;BME280_temperature;BME280_humidity;BME280_pressure;Samples;Min_cycle;Max_cycle;Signal;HPM_P1;HPM_P2
2023/10/26 00:02:05;;;;;;;41.88;29.75;;;10.10;99.90;;;;;;7382946;19;20517;-72
2023/10/26 00:04:31;;;;;;;35.53;26.35;;;10.10;99.90;;;;;;7375926;19;20581;-71
2023/10/26 00:07:00;;;;;;;40.95;28.55;;;10.10;99.90;;;;;;7378505;19;20053;-71
2023/10/26 00:09:27;;;;;;;41.90;28.55;;;10.10;99.90;;;;;;7379746;19;20038;-70
2023/10/26 00:11:54;;;;;;;43.28;27.75;;;10.10;99.90;;;;;;7375767;19;20503;-71
2023/10/26 00:14:21;;;;;;;36.88;26.58;;;10.10;99.90;;;;;;7375100;19;20023;-71
2023/10/26 00:16:47;;;;;;;40.63;27.20;;;10.10;99.90;;;;;;7380674;19;20392;-71
2023/10/26 00:19:21;;;;;;;36.03;26.65;;;10.10;99.90;;;;;;7378422;19;20022;-71
2023/10/26 00:21:47;;;;;;;37.83;28.60;;;10.10;99.90;;;;;;7379343;19;20054;-71
2023/10/26 00:24:13;;;;;;;44.75;30.40;;;10.10;99.90;;;;;;7377079;19;20015;-71
2023/10/26 00:26:40;;;;;;;39.22;28.05;;;10.10;99.90;;;;;;7376679;19;20014;-71
2023/10/26 00:29:08;;;;;;;41.03;26.88;;;10.10;99.90;;;;;;7378132;19;20015;-70
2023/10/26 00:31:35;;;;;;;45.22;28.83;;;10.00;99.90;;;;;;7378758;19;20027;-70
2023/10/26 00:34:01;;;;;;;36.85;27.33;;;10.00;99.90;;;;;;7379376;19;20060;-70
2023/10/26 00:36:31;;;;;;;45.40;29.92;;;10.00;99.90;;;;;;7379442;19;20022;-70
2023/10/26 00:38:57;;;;;;;45.50;29.90;;;10.00;99.90;;;;;;7378867;19;20015;-70
2023/10/26 00:41:24;;;;;;;44.42;32.63;;;10.00;99.90;;;;;;7379781;19;20026;-70
2023/10/26 00:43:51;;;;;;;37.88;28.10;;;10.00;99.90;;;;;;7379876;19;20094;-71
2023/10/26 00:46:17;;;;;;;43.17;29.02;;;10.00;99.90;;;;;;7379536;19;20030;-71
2023/10/26 00:48:44;;;;;;;44.40;30.52;;;10.00;99.90;;;;;;7382056;19;20036;-71
2023/10/26 00:51:10;;;;;;;41.95;29.60;;;10.00;99.90;;;;;;7375957;19;20022;-71
2023/10/26 00:53:40;;;;;;;48.42;31.00;;;10.00;99.90;;;;;;7377769;19;20018;-71
2023/10/26 00:56:07;;;;;;;47.22;29.33;;;10.00;99.90;;;;;;7378656;19;20015;-71
2023/10/26 00:58:34;;;;;;;42.78;30.67;;;10.00;99.90;;;;;;7379136;19;20021;-71
2023/10/26 01:01:01;;;;;;;40.45;31.60;;;9.90;99.90;;;;;;7375138;19;20021;-70
2023/10/26 01:03:30;;;;;;;49.35;31.27;;;9.90;99.90;;;;;;7379948;19;20772;-70
2023/10/26 01:05:57;;;;;;;44.90;32.08;;;9.90;99.90;;;;;;7376211;19;20022;-70
2023/10/26 01:08:23;;;;;;;45.75;32.28;;;9.90;99.90;;;;;;7376400;19;20025;-71
2023/10/26 01:10:50;;;;;;;50.28;33.05;;;9.90;99.90;;;;;;7377564;19;20032;-70
2023/10/26 01:13:17;;;;;;;45.95;31.50;;;9.90;99.90;;;;;;7374427;19;20015;-71
2023/10/26 01:15:44;;;;;;;49.70;33.30;;;9.90;99.90;;;;;;7375106;19;20015;-71
2023/10/26 01:18:10;;;;;;;55.60;34.42;;;9.80;99.90;;;;;;7378447;19;20014;-71
2023/10/26 01:20:40;;;;;;;49.70;34.25;;;9.80;99.90;;;;;;7375098;19;20054;-71
2023/10/26 01:23:07;;;;;;;48.20;32.63;;;9.70;99.90;;;;;;7373301;19;20030;-71
2023/10/26 01:25:33;;;;;;;54.33;35.03;;;9.70;99.90;;;;;;7372048;19;20018;-71
2023/10/26 01:27:59;;;;;;;51.65;35.10;;;9.70;99.90;;;;;;7378352;19;20026;-71
2023/10/26 01:30:26;;;;;;;61.92;36.70;;;9.70;99.90;;;;;;7376800;19;20563;-71
2023/10/26 01:32:52;;;;;;;55.15;35.80;;;9.60;99.90;;;;;;7378050;19;20029;-70
2023/10/26 01:35:18;;;;;;;58.42;36.45;;;9.60;99.90;;;;;;7373983;19;20055;-70
2023/10/26 01:37:45;;;;;;;53.88;35.08;;;9.50;99.90;;;;;;7379649;19;20053;-72
2023/10/26 01:40:11;;;;;;;58.15;37.72;;;9.60;99.90;;;;;;7375644;19;20010;-71
2023/10/26 01:42:38;;;;;;;55.80;35.58;;;9.50;99.90;;;;;;7375990;19;20037;-72
2023/10/26 01:45:04;;;;;;;66.00;38.92;;;9.60;99.90;;;;;;7373096;19;20056;-72
2023/10/26 01:47:31;;;;;;;68.50;40.80;;;9.60;99.90;;;;;;7374903;19;20570;-72
2023/10/26 01:49:59;;;;;;;61.15;37.17;;;9.60;99.90;;;;;;7375124;19;20354;-71
2023/10/26 01:52:25;;;;;;;67.80;41.00;;;9.60;99.90;;;;;;7376221;19;20018;-71
2023/10/26 01:54:51;;;;;;;70.05;41.25;;;9.60;99.90;;;;;;7377341;19;20019;-72
2023/10/26 01:57:18;;;;;;;65.07;40.10;;;9.70;99.90;;;;;;7373821;19;20150;-71
2023/10/26 01:59:44;;;;;;;64.93;39.50;;;9.70;99.90;;;;;;7375970;19;20022;-71
2023/10/26 02:02:10;;;;;;;67.80;41.33;;;9.70;99.90;;;;;;7375835;19;20055;-72
2023/10/26 02:04:37;;;;;;;67.38;41.22;;;9.70;99.90;;;;;;7372689;19;20758;-71
2023/10/26 02:07:03;;;;;;;74.18;41.20;;;9.70;99.90;;;;;;7374300;19;20037;-73
2023/10/26 02:09:30;;;;;;;67.30;41.13;;;9.70;99.90;;;;;;7374571;19;20030;-72
2023/10/26 02:11:56;;;;;;;63.80;39.63;;;9.70;99.90;;;;;;7376043;19;20060;-71
2023/10/26 02:14:23;;;;;;;64.07;40.17;;;9.70;99.90;;;;;;7372504;19;20103;-71
2023/10/26 02:16:50;;;;;;;74.15;42.55;;;9.70;99.90;;;;;;7370139;19;20027;-71
2023/10/26 02:19:16;;;;;;;72.80;43.97;;;9.70;99.90;;;;;;7375695;19;20073;-72
2023/10/26 02:21:43;;;;;;;74.22;43.38;;;9.80;99.90;;;;;;7371569;19;20096;-71
2023/10/26 02:24:09;;;;;;;76.22;43.80;;;9.70;99.90;;;;;;7374088;19;20021;-71
2023/10/26 02:26:35;;;;;;;77.07;43.30;;;9.70;99.90;;;;;;7373386;19;20916;-71
2023/10/26 02:29:01;;;;;;;70.32;44.05;;;9.80;99.90;;;;;;7370885;19;20056;-71
2023/10/26 02:31:28;;;;;;;71.38;44.03;;;9.70;99.90;;;;;;7374528;19;20023;-71
2023/10/26 02:33:54;;;;;;;78.68;45.88;;;9.80;99.90;;;;;;7374566;19;20034;-71
2023/10/26 02:36:21;;;;;;;77.90;44.28;;;9.80;99.90;;;;;;7370987;19;20026;-71
2023/10/26 02:38:48;;;;;;;85.55;44.70;;;9.80;99.90;;;;;;7374255;19;20029;-71
2023/10/26 02:41:14;;;;;;;80.93;46.08;;;9.80;99.90;;;;;;7374561;19;20789;-71
2023/10/26 02:43:41;;;;;;;82.65;45.08;;;9.80;99.90;;;;;;7369903;19;20018;-71
2023/10/26 02:46:09;;;;;;;75.93;46.13;;;9.80;99.90;;;;;;7373022;19;20035;-71
2023/10/26 02:48:35;;;;;;;73.78;44.17;;;9.70;99.90;;;;;;7372378;19;20150;-71
2023/10/26 02:51:01;;;;;;;78.97;44.63;;;9.80;99.90;;;;;;7370506;19;20022;-71
2023/10/26 02:53:27;;;;;;;84.03;45.50;;;9.70;99.90;;;;;;7374512;19;20493;-70
2023/10/26 02:55:53;;;;;;;78.22;45.33;;;9.70;99.90;;;;;;7372449;19;20022;-70
2023/10/26 02:58:20;;;;;;;66.85;43.00;;;9.70;99.90;;;;;;7371766;19;20018;-71
2023/10/26 03:00:47;;;;;;;80.65;44.63;;;9.70;99.90;;;;;;7366343;19;20039;-70
2023/10/26 03:03:13;;;;;;;74.43;44.22;;;9.70;99.90;;;;;;7380514;19;20721;-71
2023/10/26 03:05:39;;;;;;;80.63;46.45;;;9.70;99.90;;;;;;7381398;19;20035;-71
2023/10/26 03:08:06;;;;;;;87.00;46.83;;;9.70;99.90;;;;;;7382549;19;20525;-71
2023/10/26 03:10:32;;;;;;;87.10;47.80;;;9.70;99.90;;;;;;7378602;19;20799;-70
2023/10/26 03:12:58;;;;;;;76.03;44.80;;;9.70;99.90;;;;;;7381416;19;20122;-70
2023/10/26 03:15:26;;;;;;;84.85;46.45;;;9.60;99.90;;;;;;7378332;19;20054;-70
2023/10/26 03:17:53;;;;;;;79.80;46.60;;;9.70;99.90;;;;;;7382045;19;20424;-71
2023/10/26 03:20:19;;;;;;;80.97;47.47;;;9.60;99.90;;;;;;7385784;19;20033;-71
2023/10/26 03:22:45;;;;;;;85.47;47.15;;;9.70;99.90;;;;;;7381951;19;20648;-71
2023/10/26 03:25:13;;;;;;;89.63;49.20;;;9.70;99.90;;;;;;7378685;19;20023;-71
2023/10/26 03:27:43;;;;;;;85.88;48.35;;;9.70;99.90;;;;;;7379735;19;20248;-71
2023/10/26 03:30:10;;;;;;;73.32;45.50;;;9.70;99.90;;;;;;7380149;19;20310;-71
2023/10/26 03:32:36;;;;;;;84.90;45.63;;;9.70;99.90;;;;;;7379992;19;20022;-71
2023/10/26 03:35:03;;;;;;;87.30;47.33;;;9.70;99.90;;;;;;7380602;19;20026;-70
2023/10/26 03:37:30;;;;;;;81.75;47.42;;;9.70;99.90;;;;;;7377063;19;20098;-71
2023/10/26 03:39:56;;;;;;;90.90;50.47;;;9.70;99.90;;;;;;7377079;19;20140;-71
2023/10/26 03:42:23;;;;;;;94.30;48.78;;;9.70;99.90;;;;;;7378919;19;20018;-72
2023/10/26 03:44:50;;;;;;;90.80;50.80;;;9.70;99.90;;;;;;7376380;19;20058;-71
2023/10/26 03:47:18;;;;;;;101.28;51.15;;;9.70;99.90;;;;;;7376810;19;20058;-71
2023/10/26 03:49:46;;;;;;;99.00;52.50;;;9.70;99.90;;;;;;7374648;19;20018;-71
2023/10/26 03:52:15;;;;;;;104.28;53.05;;;9.70;99.90;;;;;;7377236;19;20143;-71
2023/10/26 03:54:42;;;;;;;102.57;52.72;;;9.70;99.90;;;;;;7376980;19;20085;-70
2023/10/26 03:57:09;;;;;;;92.07;49.97;;;9.70;99.90;;;;;;7379846;19;20025;-70
2023/10/26 03:59:35;;;;;;;106.53;53.70;;;9.70;99.90;;;;;;7376322;19;20022;-70
2023/10/26 04:02:01;;;;;;;107.90;53.05;;;9.70;99.90;;;;;;7380298;19;20046;-71
2023/10/26 04:04:27;;;;;;;92.28;48.83;;;9.70;99.90;;;;;;7376728;19;20019;-70
2023/10/26 04:06:54;;;;;;;101.53;53.17;;;9.70;99.90;;;;;;7374776;19;20435;-71
2023/10/26 04:09:20;;;;;;;96.75;51.38;;;9.70;99.90;;;;;;7378728;19;20022;-71
2023/10/26 04:11:46;;;;;;;96.05;53.78;;;9.70;99.90;;;;;;7376791;19;20033;-70
2023/10/26 04:14:13;;;;;;;90.72;49.63;;;9.70;99.90;;;;;;7375859;19;20494;-70
2023/10/26 04:16:40;;;;;;;99.63;52.90;;;9.70;99.90;;;;;;7375727;19;20074;-71
2023/10/26 04:19:06;;;;;;;95.18;52.80;;;9.70;99.90;;;;;;7376398;19;20018;-70
2023/10/26 04:21:33;;;;;;;93.95;51.70;;;9.70;99.90;;;;;;7381555;19;20049;-70
2023/10/26 04:24:00;;;;;;;89.80;48.42;;;9.70;99.90;;;;;;7375740;19;20018;-70
2023/10/26 04:26:26;;;;;;;102.32;51.67;;;9.70;99.90;;;;;;7376203;19;20520;-70
2023/10/26 04:28:52;;;;;;;95.90;49.88;;;9.70;99.90;;;;;;7378164;19;20015;-70
2023/10/26 04:31:22;;;;;;;101.05;52.40;;;9.70;99.90;;;;;;7380289;19;20025;-71
2023/10/26 04:33:49;;;;;;;110.28;52.30;;;9.70;99.90;;;;;;7375236;19;20015;-71
2023/10/26 04:36:16;;;;;;;105.32;51.38;;;9.70;99.90;;;;;;7375036;19;20433;-71
2023/10/26 04:38:42;;;;;;;97.93;51.45;;;9.70;99.90;;;;;;7372759;19;20410;-70
2023/10/26 04:41:08;;;;;;;101.13;50.85;;;9.70;99.90;;;;;;7379425;19;20022;-70
2023/10/26 04:43:34;;;;;;;92.57;49.63;;;9.70;99.90;;;;;;7373435;19;20014;-70
2023/10/26 04:46:00;;;;;;;100.30;53.67;;;9.60;99.90;;;;;;7378467;19;20078;-70
2023/10/26 04:48:27;;;;;;;106.65;53.70;;;9.70;99.90;;;;;;7374074;19;21351;-70
2023/10/26 04:50:53;;;;;;;91.47;50.40;;;9.60;99.90;;;;;;7374004;19;20022;-70
2023/10/26 04:53:20;;;;;;;96.90;53.78;;;9.60;99.90;;;;;;7378761;19;20021;-70
2023/10/26 04:55:46;;;;;;;103.22;52.30;;;9.60;99.90;;;;;;7376198;19;20014;-71
2023/10/26 04:58:13;;;;;;;124.82;55.17;;;9.60;99.90;;;;;;7376146;19;20034;-70
2023/10/26 05:00:39;;;;;;;95.60;50.97;;;9.60;99.90;;;;;;7376007;19;20236;-70
2023/10/26 05:03:05;;;;;;;95.32;49.28;;;9.60;99.90;;;;;;7375828;19;20107;-70
2023/10/26 05:05:32;;;;;;;107.47;53.40;;;9.60;99.90;;;;;;7376514;19;20022;-70
2023/10/26 05:07:58;;;;;;;97.97;50.70;;;9.50;99.90;;;;;;7375987;19;20039;-70
2023/10/26 05:10:25;;;;;;;105.53;52.03;;;9.50;99.90;;;;;;7372012;19;20056;-71
2023/10/26 05:12:52;;;;;;;110.57;54.22;;;9.40;99.90;;;;;;7375916;19;20031;-70
2023/10/26 05:15:18;;;;;;;98.10;51.33;;;9.40;99.90;;;;;;7378475;19;20025;-70
2023/10/26 05:17:47;;;;;;;101.15;50.10;;;9.30;99.90;;;;;;7374726;19;20087;-71
2023/10/26 05:20:13;;;;;;;100.57;51.90;;;9.30;99.90;;;;;;7375968;19;20328;-70
2023/10/26 05:22:40;;;;;;;100.18;51.38;;;9.30;99.90;;;;;;7376135;19;20019;-71
2023/10/26 05:25:08;;;;;;;109.45;51.28;;;9.20;99.90;;;;;;7376316;19;20028;-70
2023/10/26 05:27:34;;;;;;;107.03;51.35;;;9.20;99.90;;;;;;7374356;19;20046;-69
2023/10/26 05:30:00;;;;;;;104.65;52.10;;;9.20;99.90;;;;;;7373805;19;20023;-71
2023/10/26 05:32:27;;;;;;;126.93;56.42;;;9.20;99.90;;;;;;7374609;19;20019;-70
2023/10/26 05:34:53;;;;;;;105.60;52.03;;;9.20;99.90;;;;;;7376235;19;20026;-70
2023/10/26 05:37:20;;;;;;;116.82;53.45;;;9.10;99.90;;;;;;7373948;19;20396;-70
2023/10/26 05:39:46;;;;;;;110.53;52.08;;;9.10;99.90;;;;;;7373835;19;20022;-70
2023/10/26 05:42:12;;;;;;;115.32;54.53;;;9.00;99.90;;;;;;7374520;19;20022;-70
2023/10/26 05:44:39;;;;;;;120.57;53.58;;;9.00;99.90;;;;;;7371640;19;20018;-70
2023/10/26 05:47:05;;;;;;;135.13;54.20;;;9.00;99.90;;;;;;7372239;19;20030;-71
2023/10/26 05:49:33;;;;;;;135.07;54.95;;;9.00;99.90;;;;;;7373843;19;20018;-70
2023/10/26 05:52:01;;;;;;;102.13;51.83;;;9.00;99.90;;;;;;7375964;19;20022;-71
2023/10/26 05:54:28;;;;;;;109.35;54.10;;;8.90;99.90;;;;;;7373766;19;20018;-71
2023/10/26 05:56:54;;;;;;;99.90;47.85;;;8.90;99.90;;;;;;7376142;19;20021;-70
2023/10/26 05:59:20;;;;;;;153.15;57.53;;;8.90;99.90;;;;;;7376628;19;20034;-71
2023/10/26 06:01:47;;;;;;;105.38;51.67;;;8.90;99.90;;;;;;7377767;19;20418;-72
2023/10/26 06:04:13;;;;;;;106.32;51.92;;;8.90;99.90;;;;;;7376031;19;20030;-72
2023/10/26 06:06:39;;;;;;;145.38;56.05;;;8.90;99.90;;;;;;7373782;19;20022;-72
2023/10/26 06:09:05;;;;;;;119.00;53.78;;;8.90;99.90;;;;;;7373365;19;20454;-63
2023/10/26 06:11:32;;;;;;;145.10;55.55;;;8.90;99.90;;;;;;7373243;19;20526;-69
2023/10/26 06:13:58;;;;;;;92.32;47.72;;;8.90;99.90;;;;;;7367138;19;20026;-69
2023/10/26 06:16:24;;;;;;;110.90;51.42;;;8.90;99.90;;;;;;7372836;19;20011;-70
2023/10/26 06:18:51;;;;;;;114.32;49.10;;;8.90;99.90;;;;;;7370191;19;20502;-72
2023/10/26 06:21:17;;;;;;;98.95;47.03;;;8.90;99.90;;;;;;7371423;19;20756;-69
2023/10/26 06:23:44;;;;;;;125.80;53.58;;;8.90;99.90;;;;;;7367138;19;20025;-70
2023/10/26 06:26:11;;;;;;;105.68;48.65;;;8.90;99.90;;;;;;7366404;19;20010;-71
2023/10/26 06:28:37;;;;;;;127.53;51.50;;;8.90;99.90;;;;;;7372797;19;20018;-70
2023/10/26 06:31:11;;;;;;;88.25;43.40;;;8.90;99.90;;;;;;7373705;19;20026;-70
2023/10/26 06:33:38;;;;;;;111.13;49.33;;;8.90;99.90;;;;;;7370443;19;20518;-71
2023/10/26 06:36:05;;;;;;;115.65;49.90;;;8.90;99.90;;;;;;7373034;19;20497;-65
2023/10/26 06:38:31;;;;;;;90.32;44.65;;;8.80;99.90;;;;;;7378284;19;20014;-71
2023/10/26 06:40:57;;;;;;;121.50;50.15;;;8.80;99.90;;;;;;7377210;19;20029;-71
2023/10/26 06:43:24;;;;;;;88.53;43.65;;;8.80;99.90;;;;;;7377818;19;20654;-70
2023/10/26 06:45:51;;;;;;;96.10;47.35;;;8.80;99.90;;;;;;7379375;19;20075;-71
2023/10/26 06:48:20;;;;;;;103.63;45.10;;;8.80;99.90;;;;;;7379709;19;20014;-70
2023/10/26 06:50:47;;;;;;;98.38;45.17;;;8.80;99.90;;;;;;7375993;19;20740;-71
2023/10/26 06:53:14;;;;;;;86.03;44.60;;;8.80;99.90;;;;;;7380978;19;20372;-70
2023/10/26 06:55:41;;;;;;;85.70;43.03;;;8.80;99.90;;;;;;7378316;19;20039;-70
2023/10/26 06:58:07;;;;;;;86.13;45.03;;;8.80;99.90;;;;;;7375524;19;20424;-70
2023/10/26 07:00:34;;;;;;;98.72;46.08;;;8.70;99.90;;;;;;7381856;19;20015;-70
2023/10/26 07:03:00;;;;;;;84.35;44.28;;;8.80;99.90;;;;;;7381157;19;20019;-75
2023/10/26 07:05:27;;;;;;;87.20;43.38;;;8.70;99.90;;;;;;7377858;19;20018;-75
2023/10/26 07:07:53;;;;;;;82.35;42.15;;;8.80;99.90;;;;;;7378416;19;20110;-73
2023/10/26 07:10:20;;;;;;;96.13;45.22;;;8.90;99.90;;;;;;7379675;19;20018;-73
2023/10/26 07:12:47;;;;;;;103.15;47.47;;;9.00;99.90;;;;;;7382288;19;20414;-72
2023/10/26 07:15:13;;;;;;;93.00;46.42;;;9.10;99.90;;;;;;7380806;19;20037;-74
2023/10/26 07:17:40;;;;;;;87.28;45.53;;;9.20;99.90;;;;;;7378654;19;20022;-71
2023/10/26 07:20:07;;;;;;;91.70;47.03;;;9.30;99.90;;;;;;7379394;19;20042;-71
2023/10/26 07:22:35;;;;;;;137.15;56.33;;;9.40;99.90;;;;;;7377300;19;20110;-70
2023/10/26 07:25:02;;;;;;;120.68;51.53;;;9.50;99.90;;;;;;7379904;19;20033;-68
2023/10/26 07:27:28;;;;;;;143.73;55.67;;;9.60;99.90;;;;;;7375882;19;20119;-70
2023/10/26 07:29:54;;;;;;;172.32;58.42;;;9.70;99.90;;;;;;7377299;19;20074;-70
2023/10/26 07:32:21;;;;;;;313.33;66.32;;;9.80;99.90;;;;;;7380830;19;20019;-61
2023/10/26 07:34:47;;;;;;;230.43;56.13;;;9.90;99.90;;;;;;7382655;19;20030;-69
2023/10/26 07:37:13;;;;;;;391.33;71.60;;;9.90;99.90;;;;;;7377654;19;20078;-69
2023/10/26 07:39:39;;;;;;;195.43;56.83;;;9.90;99.90;;;;;;7378767;19;20058;-68
2023/10/26 07:42:06;;;;;;;425.30;69.13;;;9.90;99.90;;;;;;7381911;19;20045;-69
2023/10/26 07:44:33;;;;;;;192.55;50.45;;;9.90;99.90;;;;;;7382887;19;20010;-68
2023/10/26 07:46:59;;;;;;;196.48;49.75;;;9.90;99.90;;;;;;7377455;19;20014;-69
2023/10/26 07:49:26;;;;;;;405.67;71.72;;;9.90;99.90;;;;;;7381558;19;20034;-71
2023/10/26 07:51:52;;;;;;;177.13;49.25;;;10.00;99.90;;;;;;7379152;19;20039;-70
2023/10/26 07:54:18;;;;;;;168.48;50.28;;;10.00;99.90;;;;;;7382959;19;20014;-70
2023/10/26 07:56:45;;;;;;;238.68;59.40;;;10.10;99.90;;;;;;7377190;19;20106;-72
2023/10/26 07:59:11;;;;;;;154.50;50.33;;;10.30;99.90;;;;;;7378817;19;20028;-69
2023/10/26 08:01:38;;;;;;;99.30;48.30;;;10.50;99.90;;;;;;7373105;19;20550;-70
2023/10/26 08:04:04;;;;;;;113.53;45.95;;;10.70;99.90;;;;;;7379728;19;20596;-66
2023/10/26 08:06:30;;;;;;;73.07;45.53;;;10.80;99.90;;;;;;7381962;19;20019;-65
2023/10/26 08:08:58;;;;;;;71.30;45.58;;;10.80;99.90;;;;;;7382671;19;20455;-67
2023/10/26 08:11:24;;;;;;;68.55;42.58;;;10.80;99.90;;;;;;7380384;19;20018;-69
2023/10/26 08:13:51;;;;;;;76.03;43.55;;;10.80;99.90;;;;;;7375487;19;20010;-69
2023/10/26 08:16:18;;;;;;;62.65;42.17;;;10.90;99.90;;;;;;7378898;19;20024;-69
2023/10/26 08:18:44;;;;;;;66.43;43.38;;;10.90;99.90;;;;;;7378106;19;20312;-69
2023/10/26 08:21:13;;;;;;;54.47;40.70;;;11.00;99.90;;;;;;7383436;19;20029;-69
2023/10/26 08:23:39;;;;;;;60.42;42.17;;;11.00;99.90;;;;;;7379709;19;20022;-69
2023/10/26 08:26:07;;;;;;;56.15;40.63;;;11.00;99.90;;;;;;7381703;19;20015;-69
2023/10/26 08:28:34;;;;;;;54.70;40.42;;;11.00;99.90;;;;;;7381589;19;20011;-69
2023/10/26 08:31:01;;;;;;;55.10;40.50;;;11.00;99.90;;;;;;7374543;19;20018;-75
2023/10/26 08:33:29;;;;;;;50.78;39.03;;;11.00;99.90;;;;;;7374347;19;20029;-68
2023/10/26 08:35:56;;;;;;;50.25;40.72;;;11.00;99.90;;;;;;7379708;19;20022;-75
2023/10/26 08:38:23;;;;;;;52.25;39.33;;;10.90;99.90;;;;;;7380731;19;20014;-75
2023/10/26 08:40:54;;;;;;;53.70;40.05;;;10.80;99.90;;;;;;7376221;19;20027;-75
2023/10/26 08:43:21;;;;;;;52.08;39.75;;;10.80;99.90;;;;;;7383991;19;20018;-73
2023/10/26 08:45:48;;;;;;;53.10;39.90;;;10.70;99.90;;;;;;7378470;19;20031;-67
2023/10/26 08:48:16;;;;;;;58.17;40.85;;;10.70;99.90;;;;;;7379872;19;20015;-69
2023/10/26 08:50:43;;;;;;;57.00;40.92;;;10.70;99.90;;;;;;7377699;19;20674;-71
2023/10/26 08:53:10;;;;;;;52.53;40.55;;;10.80;99.90;;;;;;7378891;19;20498;-69
2023/10/26 08:55:40;;;;;;;57.63;41.67;;;10.80;99.90;;;;;;7374415;19;20026;-68
2023/10/26 08:58:07;;;;;;;49.47;37.85;;;11.00;99.90;;;;;;7373098;19;20029;-68
2023/10/26 09:00:41;;;;;;;57.65;43.92;;;11.00;99.90;;;;;;7376119;19;20035;-74
2023/10/26 09:03:07;;;;;;;50.55;33.90;;;11.10;99.90;;;;;;7379771;19;20022;-73
2023/10/26 09:05:51;;;;;;;40.20;35.17;;;11.20;99.90;;;;;;7375385;19;20029;-73
2023/10/26 09:08:18;;;;;;;48.05;35.38;;;11.30;99.90;;;;;;7375699;19;20020;-74
2023/10/26 09:10:45;;;;;;;41.40;34.40;;;11.30;99.90;;;;;;7374798;19;20022;-73
2023/10/26 09:13:14;;;;;;;52.13;40.72;;;11.30;99.90;;;;;;7378895;19;20414;-75
2023/10/26 09:15:49;;;;;;;43.00;33.78;;;11.10;99.90;;;;;;7379228;19;20678;-73
2023/10/26 09:18:16;;;;;;;54.40;44.33;;;11.10;99.90;;;;;;7378030;19;20015;-74
2023/10/26 09:20:59;;;;;;;43.45;33.05;;;11.10;99.90;;;;;;7376779;19;20035;-74
2023/10/26 09:23:28;;;;;;;39.22;32.60;;;11.10;99.90;;;;;;7379785;19;20089;-69
2023/10/26 09:26:09;;;;;;;36.95;32.55;;;11.10;99.90;;;;;;7380599;19;20019;-69
2023/10/26 09:28:47;;;;;;;45.83;35.80;;;11.20;99.90;;;;;;7381798;19;20010;-69
2023/10/26 09:31:13;;;;;;;35.42;28.80;;;11.30;99.90;;;;;;7378100;19;20613;-74
2023/10/26 09:33:40;;;;;;;38.58;31.20;;;11.40;99.90;;;;;;7380404;19;20497;-71
2023/10/26 09:36:12;;;;;;;36.33;31.98;;;11.40;99.90;;;;;;7380082;19;20018;-71
2023/10/26 09:38:41;;;;;;;;;;;11.70;99.90;;;;;;7378008;19;20018;-71
2023/10/26 09:41:12;;;;;;;34.17;29.33;;;11.70;99.90;;;;;;7376707;19;19930;-71
2023/10/26 09:43:42;;;;;;;35.47;28.63;;;11.80;99.90;;;;;;7376580;19;20038;-69
2023/10/26 09:46:10;;;;;;;32.03;28.15;;;11.90;99.90;;;;;;7376303;19;20019;-68
2023/10/26 09:48:40;;;;;;;31.80;28.00;;;12.00;99.90;;;;;;7377368;19;20018;-69
2023/10/26 09:51:15;;;;;;;32.25;28.65;;;12.20;99.90;;;;;;7370039;19;21946;-66
2023/10/26 09:53:42;;;;;;;29.50;26.33;;;12.30;99.90;;;;;;7372625;19;20018;-69
2023/10/26 09:56:17;;;;;;;29.08;26.08;;;12.30;99.90;;;;;;7378890;19;20788;-70
2023/10/26 09:58:43;;;;;;;29.00;25.50;;;12.30;99.90;;;;;;7378826;19;20021;-70
2023/10/26 10:01:39;;;;;;;27.95;25.02;;;12.20;99.90;;;;;;7378724;19;20018;-69
2023/10/26 10:04:08;;;;;;;28.33;25.13;;;12.10;99.90;;;;;;7374625;19;20018;-69
2023/10/26 10:06:44;;;;;;;28.00;25.00;;;12.20;99.90;;;;;;7374139;19;20763;-67
2023/10/26 10:09:11;;;;;;;27.35;24.48;;;12.20;99.90;;;;;;7369972;19;20015;-67
2023/10/26 10:11:38;;;;;;;30.00;25.80;;;12.20;99.90;;;;;;7369815;19;20659;-67
2023/10/26 10:14:05;;;;;;;26.10;23.25;;;12.30;99.90;;;;;;7374766;19;20406;-66
2023/10/26 10:16:34;;;;;;;25.98;23.33;;;12.20;99.90;;;;;;7377626;19;20110;-75
2023/10/26 10:19:20;;;;;;;26.73;23.65;;;12.20;99.90;;;;;;7374211;19;20157;-67
2023/10/26 10:21:48;;;;;;;27.05;24.05;;;12.10;99.90;;;;;;7373539;19;20023;-67
2023/10/26 10:24:42;;;;;;;27.23;22.85;;;12.20;99.90;;;;;;7375501;19;20179;-67
2023/10/26 10:27:13;;;;;;;27.10;24.13;;;12.10;99.90;;;;;;7374901;19;20014;-68
2023/10/26 10:29:40;;;;;;;26.92;24.23;;;12.10;99.90;;;;;;7373750;19;20023;-67
2023/10/26 10:32:06;;;;;;;27.88;24.60;;;12.00;99.90;;;;;;7374677;19;20110;-62
2023/10/26 10:34:43;;;;;;;28.70;25.50;;;12.00;99.90;;;;;;7370404;19;21421;-64
2023/10/26 10:37:11;;;;;;;28.60;25.02;;;11.90;99.90;;;;;;7370247;19;20014;-62
2023/10/26 10:39:38;;;;;;;38.83;34.53;;;11.90;99.90;;;;;;7367793;19;20026;-62
2023/10/26 10:42:11;;;;;;;29.40;26.27;;;12.00;99.90;;;;;;7369414;19;20704;-63
2023/10/26 10:44:37;;;;;;;36.40;32.33;;;12.00;99.90;;;;;;7369413;19;20046;-60
2023/10/26 10:47:04;;;;;;;31.45;26.50;;;12.10;99.90;;;;;;7365656;19;20026;-67
2023/10/26 10:49:30;;;;;;;31.23;27.85;;;12.30;99.90;;;;;;7373897;19;20050;-67
2023/10/26 10:51:57;;;;;;;29.52;26.38;;;13.50;99.90;;;;;;7370469;19;20031;-66
2023/10/26 10:54:24;;;;;;;24.30;21.80;;;14.80;99.90;;;;;;7374116;19;20030;-69
2023/10/26 10:56:51;;;;;;;23.88;21.48;;;15.20;99.90;;;;;;7373989;19;20406;-71
2023/10/26 10:59:25;;;;;;;22.50;20.17;;;15.40;99.90;;;;;;7374989;19;20032;-67
2023/10/26 11:02:13;;;;;;;23.65;21.25;;;15.30;99.90;;;;;;7372253;19;20023;-69
2023/10/26 11:04:56;;;;;;;20.83;18.73;;;15.50;99.90;;;;;;7370037;19;20478;-63
2023/10/26 11:07:30;;;;;;;21.98;18.75;;;15.70;99.90;;;;;;7371159;19;20581;-64
2023/10/26 11:10:00;;;;;;;24.98;19.65;;;15.70;99.90;;;;;;7368280;19;20115;-63
2023/10/26 11:12:27;;;;;;;20.65;18.55;;;15.50;99.90;;;;;;7367661;19;20723;-63
2023/10/26 11:14:56;;;;;;;20.27;18.10;;;15.20;99.90;;;;;;7375850;19;20039;-63
2023/10/26 11:17:27;;;;;;;21.52;19.42;;;16.00;99.90;;;;;;7365653;19;20019;-62
2023/10/26 11:19:53;;;;;;;;;;;16.90;99.90;;;;;;7373817;19;20052;-63
2023/10/26 11:22:21;;;;;;;19.77;17.70;;;16.60;99.90;;;;;;7372145;19;19922;-63
2023/10/26 11:24:49;;;;;;;20.48;18.27;;;16.50;99.90;;;;;;7377243;19;20018;-62
2023/10/26 11:27:18;;;;;;;24.00;21.60;;;16.10;99.90;;;;;;7375354;19;20019;-68
2023/10/26 11:30:02;;;;;;;18.77;16.98;;;15.70;99.90;;;;;;7383997;19;20033;-68
2023/10/26 11:32:29;;;;;;;17.63;15.80;;;16.40;99.90;;;;;;7384423;19;20513;-68
2023/10/26 11:35:10;;;;;;;16.90;15.30;;;17.70;99.90;;;;;;7381885;19;20492;-62
2023/10/26 11:37:40;;;;;;;16.63;15.02;;;19.00;99.90;;;;;;7375486;19;20029;-62
2023/10/26 11:40:08;;;;;;;15.85;14.05;;;19.90;99.90;;;;;;7374548;19;20015;-62
2023/10/26 11:42:59;;;;;;;15.95;14.45;;;20.60;99.90;;;;;;7378732;19;20019;-68
2023/10/26 11:45:27;;;;;;;14.27;12.82;;;21.20;99.90;;;;;;7383088;19;20018;-68
2023/10/26 11:47:57;;;;;;;15.00;13.52;;;21.50;99.90;;;;;;7376592;19;20031;-68
2023/10/26 11:50:29;;;;;;;15.57;14.07;;;21.50;99.90;;;;;;7383459;19;20015;-68
2023/10/26 11:53:01;;;;;;;16.23;14.52;;;22.10;99.90;;;;;;7376606;19;20061;-63
2023/10/26 11:55:30;;;;;;;15.45;13.93;;;22.30;99.90;;;;;;7383756;19;20187;-69
2023/10/26 11:58:01;;;;;;;15.43;14.00;;;21.50;99.90;;;;;;7383542;19;20078;-69
2023/10/26 12:00:28;;;;;;;14.73;13.23;;;22.20;99.90;;;;;;7384564;19;20050;-68
2023/10/26 12:02:56;;;;;;;19.10;17.30;;;22.10;99.90;;;;;;7374735;19;20493;-67
2023/10/26 12:05:25;;;;;;;15.52;13.93;;;21.90;99.90;;;;;;7378816;19;20018;-61
2023/10/26 12:07:52;;;;;;;15.55;14.05;;;20.60;99.90;;;;;;7376278;19;20032;-68
2023/10/26 12:10:20;;;;;;;15.30;13.75;;;19.80;99.90;;;;;;7384103;19;20073;-68
2023/10/26 12:12:48;;;;;;;15.57;14.13;;;20.10;99.90;;;;;;7375784;19;20018;-68
2023/10/26 12:15:15;;;;;;;16.98;15.10;;;19.50;99.90;;;;;;7384414;19;20051;-68
2023/10/26 12:17:41;;;;;;;16.17;14.52;;;19.10;99.90;;;;;;7379765;19;20528;-68
2023/10/26 12:20:08;;;;;;;15.55;13.95;;;18.90;99.90;;;;;;7386364;19;20018;-68
2023/10/26 12:22:34;;;;;;;15.98;14.48;;;19.70;99.90;;;;;;7388150;19;20022;-68
2023/10/26 12:25:06;;;;;;;18.42;16.55;;;20.30;99.90;;;;;;7386438;19;20049;-68
2023/10/26 12:27:33;;;;;;;45.40;40.60;;;20.20;99.90;;;;;;7384132;19;20022;-68
2023/10/26 12:29:59;;;;;;;16.70;15.10;;;19.90;99.90;;;;;;7384618;19;20390;-68
2023/10/26 12:32:26;;;;;;;17.40;15.70;;;19.30;99.90;;;;;;7385308;19;20025;-67
2023/10/26 12:34:53;;;;;;;18.88;17.00;;;19.40;99.90;;;;;;7377225;19;20438;-63